sensor_id;sensor_type;location;lat;lon;timestamp;pressure;altitude;pressure_sealevel;temperature;humidity
30682;BME280;17439;48.092;11.842;2023-02-11T00:01:46;97288.19;;;-0.69;63.78
30682;BME280;17439;48.092;11.842;2023-02-11T00:04:13;97296.38;;;-0.70;63.94
30682;BME280;17439;48.092;11.842;2023-02-11T00:06:39;97293.72;;;-0.70;63.72
30682;BME280;17439;48.092;11.842;2023-02-11T00:09:06;97299.25;;;-0.72;63.69
30682;BME280;17439;48.092;11.842;2023-02-11T00:11:33;97303.56;;;-0.71;63.52
30682;BME280;17439;48.092;11.842;2023-02-11T00:14:04;97296.78;;;-0.74;63.66
30682;BME280;17439;48.092;11.842;2023-02-11T00:16:31;97291.44;;;-0.74;63.77
30682;BME280;17439;48.092;11.842;2023-02-11T00:18:59;97293.47;;;-0.76;63.69
30682;BME280;17439;48.092;11.842;2023-02-11T00:21:26;97293.69;;;-0.77;63.86
30682;BME280;17439;48.092;11.842;2023-02-11T00:23:53;97288.53;;;-0.79;63.75
30682;BME280;17439;48.092;11.842;2023-02-11T00:26:26;97299.38;;;-0.80;63.44
30682;BME280;17439;48.092;11.842;2023-02-11T00:28:53;97292.59;;;-0.83;63.68
30682;BME280;17439;48.092;11.842;2023-02-11T00:31:21;97302.63;;;-0.85;63.77
30682;BME280;17439;48.092;11.842;2023-02-11T00:33:48;97293.00;;;-0.86;63.64
30682;BME280;17439;48.092;11.842;2023-02-11T00:36:22;97298.72;;;-0.89;63.54
30682;BME280;17439;48.092;11.842;2023-02-11T00:38:50;97291.94;;;-0.92;63.48
30682;BME280;17439;48.092;11.842;2023-02-11T00:41:17;97286.78;;;-0.93;63.85
30682;BME280;17439;48.092;11.842;2023-02-11T00:43:44;97281.84;;;-0.96;63.86
30682;BME280;17439;48.092;11.842;2023-02-11T00:46:11;97282.03;;;-0.98;63.68
30682;BME280;17439;48.092;11.842;2023-02-11T00:48:39;97283.91;;;-0.98;63.71
30682;BME280;17439;48.092;11.842;2023-02-11T00:51:06;97283.44;;;-1.02;63.85
30682;BME280;17439;48.092;11.842;2023-02-11T00:53:33;97287.13;;;-1.03;63.74
30682;BME280;17439;48.092;11.842;2023-02-11T00:56:00;97288.31;;;-1.05;63.55
30682;BME280;17439;48.092;11.842;2023-02-11T00:58:27;97280.53;;;-1.07;63.64
30682;BME280;17439;48.092;11.842;2023-02-11T01:00:54;97281.56;;;-1.08;63.58
30682;BME280;17439;48.092;11.842;2023-02-11T01:03:21;97277.25;;;-1.09;63.89
30682;BME280;17439;48.092;11.842;2023-02-11T01:05:47;97271.91;;;-1.09;63.75
30682;BME280;17439;48.092;11.842;2023-02-11T01:08:15;97271.28;;;-1.11;63.74
30682;BME280;17439;48.092;11.842;2023-02-11T01:10:41;97266.97;;;-1.12;63.82
30682;BME280;17439;48.092;11.842;2023-02-11T01:13:08;97272.50;;;-1.14;63.72
30682;BME280;17439;48.092;11.842;2023-02-11T01:15:35;97277.00;;;-1.14;63.61
30682;BME280;17439;48.092;11.842;2023-02-11T01:18:03;97263.88;;;-1.16;63.71
30682;BME280;17439;48.092;11.842;2023-02-11T01:20:30;97265.69;;;-1.16;63.64
30682;BME280;17439;48.092;11.842;2023-02-11T01:22:57;97263.22;;;-1.18;63.78
30682;BME280;17439;48.092;11.842;2023-02-11T01:25:24;97257.28;;;-1.20;63.75
30682;BME280;17439;48.092;11.842;2023-02-11T01:27:50;97272.25;;;-1.19;63.80
30682;BME280;17439;48.092;11.842;2023-02-11T01:30:17;97265.28;;;-1.20;63.86
30682;BME280;17439;48.092;11.842;2023-02-11T01:32:46;97271.44;;;-1.19;63.80
30682;BME280;17439;48.092;11.842;2023-02-11T01:35:12;97259.94;;;-1.20;64.04
30682;BME280;17439;48.092;11.842;2023-02-11T01:37:39;97256.66;;;-1.22;63.81
30682;BME280;17439;48.092;11.842;2023-02-11T01:40:11;97269.16;;;-1.22;63.56
30682;BME280;17439;48.092;11.842;2023-02-11T01:42:39;97267.31;;;-1.22;63.86
30682;BME280;17439;48.092;11.842;2023-02-11T01:48:12;97260.53;;;-1.24;63.64
30682;BME280;17439;48.092;11.842;2023-02-11T01:50:41;97263.19;;;-1.24;63.92
30682;BME280;17439;48.092;11.842;2023-02-11T01:53:09;97265.03;;;-1.25;63.82
30682;BME280;17439;48.092;11.842;2023-02-11T01:55:36;97265.03;;;-1.25;63.98
30682;BME280;17439;48.092;11.842;2023-02-11T01:58:04;97256.22;;;-1.25;63.77
30682;BME280;17439;48.092;11.842;2023-02-11T02:00:36;97250.25;;;-1.28;63.44
30682;BME280;17439;48.092;11.842;2023-02-11T02:03:10;97259.09;;;-1.27;63.97
30682;BME280;17439;48.092;11.842;2023-02-11T02:05:47;97266.03;;;-1.26;63.57
30682;BME280;17439;48.092;11.842;2023-02-11T02:08:20;97262.75;;;-1.28;63.42
30682;BME280;17439;48.092;11.842;2023-02-11T02:10:50;97257.44;;;-1.28;63.68
30682;BME280;17439;48.092;11.842;2023-02-11T02:13:17;97246.78;;;-1.28;64.08
30682;BME280;17439;48.092;11.842;2023-02-11T02:15:55;97245.13;;;-1.29;63.12
30682;BME280;17439;48.092;11.842;2023-02-11T02:18:36;97245.13;;;-1.29;63.74
30682;BME280;17439;48.092;11.842;2023-02-11T02:24:19;97240.00;;;-1.31;63.50
30682;BME280;17439;48.092;11.842;2023-02-11T02:40:08;97215.22;;;-1.31;63.53
30682;BME280;17439;48.092;11.842;2023-02-11T02:42:38;97207.25;;;-1.31;64.00
30682;BME280;17439;48.092;11.842;2023-02-11T02:45:06;97204.16;;;-1.35;62.92
30682;BME280;17439;48.092;11.842;2023-02-11T02:47:32;97213.19;;;-1.29;64.23
30682;BME280;17439;48.092;11.842;2023-02-11T02:49:59;97206.25;;;-1.30;64.03
30682;BME280;17439;48.092;11.842;2023-02-11T02:52:46;97208.91;;;-1.30;62.85
30682;BME280;17439;48.092;11.842;2023-02-11T03:00:47;97205.41;;;-1.31;63.08
30682;BME280;17439;48.092;11.842;2023-02-11T03:03:29;97204.59;;;-1.31;63.14
30682;BME280;17439;48.092;11.842;2023-02-11T03:06:04;97207.25;;;-1.31;63.80
30682;BME280;17439;48.092;11.842;2023-02-11T03:08:37;97201.91;;;-1.31;63.98
30682;BME280;17439;48.092;11.842;2023-02-11T03:11:04;97197.41;;;-1.31;64.27
30682;BME280;17439;48.092;11.842;2023-02-11T03:13:34;97198.25;;;-1.30;63.93
30682;BME280;17439;48.092;11.842;2023-02-11T03:16:25;97187.59;;;-1.30;63.00
30682;BME280;17439;48.092;11.842;2023-02-11T03:19:03;97185.75;;;-1.30;63.17
30682;BME280;17439;48.092;11.842;2023-02-11T03:21:30;97186.97;;;-1.32;63.02
30682;BME280;17439;48.092;11.842;2023-02-11T03:24:05;97180.25;;;-1.28;63.49
30682;BME280;17439;48.092;11.842;2023-02-11T03:26:51;97179.25;;;-1.27;63.17
30682;BME280;17439;48.092;11.842;2023-02-11T03:29:24;97176.38;;;-1.25;63.83
30682;BME280;17439;48.092;11.842;2023-02-11T03:32:18;97183.34;;;-1.24;63.00
30682;BME280;17439;48.092;11.842;2023-02-11T03:34:52;97164.72;;;-1.24;63.65
30682;BME280;17439;48.092;11.842;2023-02-11T03:39:54;97164.50;;;-1.23;63.65
30682;BME280;17439;48.092;11.842;2023-02-11T03:42:23;97151.22;;;-1.23;63.64
30682;BME280;17439;48.092;11.842;2023-02-11T03:44:57;97153.88;;;-1.23;63.47
30682;BME280;17439;48.092;11.842;2023-02-11T03:47:26;97158.38;;;-1.23;63.80
30682;BME280;17439;48.092;11.842;2023-02-11T03:49:56;97168.63;;;-1.20;64.07
30682;BME280;17439;48.092;11.842;2023-02-11T03:52:25;97168.63;;;-1.20;64.35
30682;BME280;17439;48.092;11.842;2023-02-11T03:54:54;97179.28;;;-1.20;64.04
30682;BME280;17439;48.092;11.842;2023-02-11T03:57:23;97169.44;;;-1.20;64.39
30682;BME280;17439;48.092;11.842;2023-02-11T03:59:51;97173.78;;;-1.19;64.09
30682;BME280;17439;48.092;11.842;2023-02-11T04:02:19;97173.78;;;-1.19;64.33
30682;BME280;17439;48.092;11.842;2023-02-11T04:04:46;97171.09;;;-1.19;64.26
30682;BME280;17439;48.092;11.842;2023-02-11T04:07:13;97176.44;;;-1.19;64.07
30682;BME280;17439;48.092;11.842;2023-02-11T04:09:40;97175.63;;;-1.19;64.15
30682;BME280;17439;48.092;11.842;2023-02-11T04:12:06;97177.44;;;-1.20;64.12
30682;BME280;17439;48.092;11.842;2023-02-11T04:14:33;97184.59;;;-1.20;64.17
30682;BME280;17439;48.092;11.842;2023-02-11T04:17:00;97172.31;;;-1.21;64.09
30682;BME280;17439;48.092;11.842;2023-02-11T04:19:27;97175.16;;;-1.23;64.04
30682;BME280;17439;48.092;11.842;2023-02-11T04:21:53;97168.22;;;-1.24;64.07
30682;BME280;17439;48.092;11.842;2023-02-11T04:24:20;97166.94;;;-1.28;64.02
30682;BME280;17439;48.092;11.842;2023-02-11T04:26:47;97174.94;;;-1.28;63.97
30682;BME280;17439;48.092;11.842;2023-02-11T04:29:13;97177.59;;;-1.28;64.24
30682;BME280;17439;48.092;11.842;2023-02-11T04:31:40;97188.22;;;-1.28;64.02
30682;BME280;17439;48.092;11.842;2023-02-11T04:34:06;97188.41;;;-1.30;64.16
30682;BME280;17439;48.092;11.842;2023-02-11T04:36:33;97189.44;;;-1.31;64.16
30682;BME280;17439;48.092;11.842;2023-02-11T04:39:00;97194.75;;;-1.31;64.03
30682;BME280;17439;48.092;11.842;2023-02-11T04:41:26;97191.28;;;-1.31;64.29
30682;BME280;17439;48.092;11.842;2023-02-11T04:43:53;97186.97;;;-1.32;64.23
30682;BME280;17439;48.092;11.842;2023-02-11T04:46:19;97182.66;;;-1.33;64.02
30682;BME280;17439;48.092;11.842;2023-02-11T04:48:46;97196.78;;;-1.33;64.11
30682;BME280;17439;48.092;11.842;2023-02-11T04:51:12;97198.63;;;-1.33;64.01
30682;BME280;17439;48.092;11.842;2023-02-11T04:53:39;97204.97;;;-1.34;64.11
30682;BME280;17439;48.092;11.842;2023-02-11T04:56:06;97214.78;;;-1.35;63.93
30682;BME280;17439;48.092;11.842;2023-02-11T04:58:33;97220.13;;;-1.35;63.95
30682;BME280;17439;48.092;11.842;2023-02-11T05:01:10;97222.34;;;-1.38;63.06
30682;BME280;17439;48.092;11.842;2023-02-11T05:03:38;97231.34;;;-1.39;63.72
30682;BME280;17439;48.092;11.842;2023-02-11T05:06:05;97219.59;;;-1.45;62.51
30682;BME280;17439;48.092;11.842;2023-02-11T05:08:32;97212.28;;;-1.43;63.98
30682;BME280;17439;48.092;11.842;2023-02-11T05:10:59;97211.44;;;-1.43;64.15
30682;BME280;17439;48.092;11.842;2023-02-11T05:13:25;97205.47;;;-1.46;64.16
30682;BME280;17439;48.092;11.842;2023-02-11T05:15:52;97214.28;;;-1.45;64.50
30682;BME280;17439;48.092;11.842;2023-02-11T05:18:19;97207.53;;;-1.48;64.46
30682;BME280;17439;48.092;11.842;2023-02-11T05:20:45;97213.47;;;-1.46;64.78
30682;BME280;17439;48.092;11.842;2023-02-11T05:23:12;97207.97;;;-1.44;65.05
30682;BME280;17439;48.092;11.842;2023-02-11T05:25:39;97209.44;;;-1.41;65.26
30682;BME280;17439;48.092;11.842;2023-02-11T05:28:05;97204.53;;;-1.38;65.43
30682;BME280;17439;48.092;11.842;2023-02-11T05:30:32;97190.66;;;-1.33;65.72
30682;BME280;17439;48.092;11.842;2023-02-11T05:32:59;97196.22;;;-1.28;65.71
30682;BME280;17439;48.092;11.842;2023-02-11T05:35:28;97183.78;;;-1.21;65.75
30682;BME280;17439;48.092;11.842;2023-02-11T05:37:55;97187.69;;;-1.17;65.23
30682;BME280;17439;48.092;11.842;2023-02-11T05:40:21;97183.25;;;-1.10;65.42
30682;BME280;17439;48.092;11.842;2023-02-11T05:42:48;97179.81;;;-1.03;65.11
30682;BME280;17439;48.092;11.842;2023-02-11T05:45:15;97182.13;;;-0.94;65.44
30682;BME280;17439;48.092;11.842;2023-02-11T05:47:41;97186.91;;;-0.82;65.75
30682;BME280;17439;48.092;11.842;2023-02-11T05:50:08;97189.03;;;-0.71;65.82
30682;BME280;17439;48.092;11.842;2023-02-11T05:52:34;97180.47;;;-0.60;65.98
30682;BME280;17439;48.092;11.842;2023-02-11T05:55:01;97184.63;;;-0.50;65.80
30682;BME280;17439;48.092;11.842;2023-02-11T05:57:28;97201.91;;;-0.40;65.74
30682;BME280;17439;48.092;11.842;2023-02-11T05:59:54;97195.75;;;-0.33;65.65
30682;BME280;17439;48.092;11.842;2023-02-11T06:02:21;97195.59;;;-0.25;65.71
30682;BME280;17439;48.092;11.842;2023-02-11T06:04:48;97195.41;;;-0.17;65.62
30682;BME280;17439;48.092;11.842;2023-02-11T06:07:14;97186.63;;;-0.11;65.60
30682;BME280;17439;48.092;11.842;2023-02-11T06:09:41;97184.78;;;-0.04;65.43
30682;BME280;17439;48.092;11.842;2023-02-11T06:12:07;97174.31;;;0.02;65.34
30682;BME280;17439;48.092;11.842;2023-02-11T06:14:34;97181.53;;;0.08;65.31
30682;BME280;17439;48.092;11.842;2023-02-11T06:17:01;97186.25;;;0.12;65.11
30682;BME280;17439;48.092;11.842;2023-02-11T06:19:27;97179.31;;;0.18;65.26
30682;BME280;17439;48.092;11.842;2023-02-11T06:21:55;97175.19;;;0.22;64.95
30682;BME280;17439;48.092;11.842;2023-02-11T06:24:22;97175.63;;;0.26;65.08
30682;BME280;17439;48.092;11.842;2023-02-11T06:27:08;97174.59;;;0.27;64.36
30682;BME280;17439;48.092;11.842;2023-02-11T06:29:35;97182.19;;;0.30;64.10
30682;BME280;17439;48.092;11.842;2023-02-11T06:32:01;97180.75;;;0.34;64.56
30682;BME280;17439;48.092;11.842;2023-02-11T06:34:29;97181.97;;;0.38;64.63
30682;BME280;17439;48.092;11.842;2023-02-11T06:36:55;97182.41;;;0.42;64.92
30682;BME280;17439;48.092;11.842;2023-02-11T06:39:22;97179.16;;;0.46;65.05
30682;BME280;17439;48.092;11.842;2023-02-11T06:41:48;97176.69;;;0.51;64.98
30682;BME280;17439;48.092;11.842;2023-02-11T06:44:15;97182.41;;;0.55;64.49
30682;BME280;17439;48.092;11.842;2023-02-11T06:46:42;97177.28;;;0.60;64.53
30682;BME280;17439;48.092;11.842;2023-02-11T06:49:09;97166.00;;;0.65;64.56
30682;BME280;17439;48.092;11.842;2023-02-11T06:51:35;97167.44;;;0.67;63.73
30682;BME280;17439;48.092;11.842;2023-02-11T06:54:03;97167.84;;;0.71;63.28
30682;BME280;17439;48.092;11.842;2023-02-11T06:56:30;97169.69;;;0.77;63.69
30682;BME280;17439;48.092;11.842;2023-02-11T06:58:57;97173.41;;;0.83;64.13
30682;BME280;17439;48.092;11.842;2023-02-11T07:01:25;97165.16;;;0.91;64.07
30682;BME280;17439;48.092;11.842;2023-02-11T07:03:52;97168.03;;;0.96;63.67
30682;BME280;17439;48.092;11.842;2023-02-11T07:06:21;97174.41;;;1.02;63.58
30682;BME280;17439;48.092;11.842;2023-02-11T07:08:48;97173.34;;;1.09;64.08
30682;BME280;17439;48.092;11.842;2023-02-11T07:11:18;97187.53;;;1.17;63.29
30682;BME280;17439;48.092;11.842;2023-02-11T07:13:46;97193.06;;;1.22;63.86
30682;BME280;17439;48.092;11.842;2023-02-11T07:16:14;97197.56;;;1.28;63.94
30682;BME280;17439;48.092;11.842;2023-02-11T07:18:42;97181.13;;;1.31;63.52
30682;BME280;17439;48.092;11.842;2023-02-11T07:21:10;97178.84;;;1.35;63.36
30682;BME280;17439;48.092;11.842;2023-02-11T07:23:38;97184.38;;;1.40;63.62
30682;BME280;17439;48.092;11.842;2023-02-11T07:26:07;97179.44;;;1.43;62.94
30682;BME280;17439;48.092;11.842;2023-02-11T07:28:35;97178.81;;;1.48;63.42
30682;BME280;17439;48.092;11.842;2023-02-11T07:31:14;97178.63;;;1.50;59.54
30682;BME280;17439;48.092;11.842;2023-02-11T07:33:42;97166.25;;;1.55;63.53
30682;BME280;17439;48.092;11.842;2023-02-11T07:36:09;97164.16;;;1.57;62.13
30682;BME280;17439;48.092;11.842;2023-02-11T07:38:37;97169.31;;;1.59;61.46
30682;BME280;17439;48.092;11.842;2023-02-11T07:41:08;97170.34;;;1.58;57.23
30682;BME280;17439;48.092;11.842;2023-02-11T07:43:36;97181.81;;;1.65;62.18
30682;BME280;17439;48.092;11.842;2023-02-11T07:46:08;97187.59;;;1.69;59.54
30682;BME280;17439;48.092;11.842;2023-02-11T07:48:35;97193.53;;;1.71;61.92
30682;BME280;17439;48.092;11.842;2023-02-11T07:51:06;97200.31;;;1.73;61.06
30682;BME280;17439;48.092;11.842;2023-02-11T07:53:34;97205.88;;;1.78;62.52
30682;BME280;17439;48.092;11.842;2023-02-11T07:56:02;97190.41;;;1.80;61.50
30682;BME280;17439;48.092;11.842;2023-02-11T07:58:29;97180.53;;;1.81;61.71
30682;BME280;17439;48.092;11.842;2023-02-11T08:01:03;97177.22;;;1.86;58.67
30682;BME280;17439;48.092;11.842;2023-02-11T08:03:31;97167.75;;;1.90;61.56
30682;BME280;17439;48.092;11.842;2023-02-11T08:05:57;97160.72;;;1.95;61.60
30682;BME280;17439;48.092;11.842;2023-02-11T08:08:28;97149.38;;;2.00;61.09
30682;BME280;17439;48.092;11.842;2023-02-11T08:10:54;97150.59;;;2.04;60.53
30682;BME280;17439;48.092;11.842;2023-02-11T08:13:21;97131.44;;;2.07;60.31
30682;BME280;17439;48.092;11.842;2023-02-11T08:15:47;97132.63;;;2.11;60.08
30682;BME280;17439;48.092;11.842;2023-02-11T08:18:15;97138.34;;;2.22;60.74
30682;BME280;17439;48.092;11.842;2023-02-11T08:20:41;97137.47;;;2.28;61.01
30682;BME280;17439;48.092;11.842;2023-02-11T08:23:08;97139.88;;;2.36;61.65
30682;BME280;17439;48.092;11.842;2023-02-11T08:25:34;97138.59;;;2.45;61.59
30682;BME280;17439;48.092;11.842;2023-02-11T08:28:01;97140.41;;;2.51;60.97
30682;BME280;17439;48.092;11.842;2023-02-11T08:30:27;97143.41;;;2.62;61.61
30682;BME280;17439;48.092;11.842;2023-02-11T08:32:54;97142.47;;;2.75;62.24
30682;BME280;17439;48.092;11.842;2023-02-11T08:35:21;97135.78;;;2.84;61.45
30682;BME280;17439;48.092;11.842;2023-02-11T08:37:47;97144.34;;;2.93;61.11
30682;BME280;17439;48.092;11.842;2023-02-11T08:40:14;97144.91;;;3.01;60.41
30682;BME280;17439;48.092;11.842;2023-02-11T08:42:41;97138.81;;;3.13;61.68
30682;BME280;17439;48.092;11.842;2023-02-11T08:45:07;97140.97;;;3.22;61.38
30682;BME280;17439;48.092;11.842;2023-02-11T08:47:35;97139.41;;;3.33;61.06
30682;BME280;17439;48.092;11.842;2023-02-11T08:50:03;97152.06;;;3.44;60.71
30682;BME280;17439;48.092;11.842;2023-02-11T08:52:30;97156.47;;;3.57;61.55
30682;BME280;17439;48.092;11.842;2023-02-11T08:54:56;97167.28;;;3.69;61.94
30682;BME280;17439;48.092;11.842;2023-02-11T08:57:23;97180.16;;;3.79;61.77
30682;BME280;17439;48.092;11.842;2023-02-11T08:59:49;97180.88;;;3.86;61.26
30682;BME280;17439;48.092;11.842;2023-02-11T09:02:16;97184.53;;;3.92;61.24
30682;BME280;17439;48.092;11.842;2023-02-11T09:04:43;97187.38;;;3.97;60.83
30682;BME280;17439;48.092;11.842;2023-02-11T09:07:09;97180.28;;;4.03;60.55
30682;BME280;17439;48.092;11.842;2023-02-11T09:09:36;97180.41;;;4.08;60.64
30682;BME280;17439;48.092;11.842;2023-02-11T09:12:03;97167.13;;;4.13;60.61
30682;BME280;17439;48.092;11.842;2023-02-11T09:14:29;97156.50;;;4.18;60.58
30682;BME280;17439;48.092;11.842;2023-02-11T09:16:56;97157.13;;;4.20;60.45
30682;BME280;17439;48.092;11.842;2023-02-11T09:19:22;97153.59;;;4.20;58.78
30682;BME280;17439;48.092;11.842;2023-02-11T09:21:49;97148.34;;;4.25;60.32
30682;BME280;17439;48.092;11.842;2023-02-11T09:24:16;97153.03;;;4.29;60.38
30682;BME280;17439;48.092;11.842;2023-02-11T09:26:43;97141.84;;;4.32;58.47
30682;BME280;17439;48.092;11.842;2023-02-11T09:29:09;97139.31;;;4.38;59.02
30682;BME280;17439;48.092;11.842;2023-02-11T09:31:36;97137.34;;;4.45;59.58
30682;BME280;17439;48.092;11.842;2023-02-11T09:34:04;97138.06;;;4.52;59.38
30682;BME280;17439;48.092;11.842;2023-02-11T09:36:37;97146.59;;;4.61;59.22
30682;BME280;17439;48.092;11.842;2023-02-11T09:39:06;97136.34;;;4.69;59.06
30682;BME280;17439;48.092;11.842;2023-02-11T09:41:58;97133.53;;;4.76;55.88
30682;BME280;17439;48.092;11.842;2023-02-11T09:44:31;97133.19;;;4.84;58.06
30682;BME280;17439;48.092;11.842;2023-02-11T09:47:13;97127.13;;;4.89;53.09
30682;BME280;17439;48.092;11.842;2023-02-11T09:49:50;97129.34;;;4.92;55.82
30682;BME280;17439;48.092;11.842;2023-02-11T09:52:29;97110.28;;;4.94;51.00
30682;BME280;17439;48.092;11.842;2023-02-11T09:55:00;97106.06;;;4.98;56.41
30682;BME280;17439;48.092;11.842;2023-02-11T09:57:42;97106.53;;;4.95;46.84
30682;BME280;17439;48.092;11.842;2023-02-11T10:00:23;97108.53;;;4.99;52.56
30682;BME280;17439;48.092;11.842;2023-02-11T10:03:15;97103.28;;;5.04;51.75
30682;BME280;17439;48.092;11.842;2023-02-11T10:17:21;97110.34;;;5.34;52.71
30682;BME280;17439;48.092;11.842;2023-02-11T10:22:54;97102.63;;;5.50;55.22
30682;BME280;17439;48.092;11.842;2023-02-11T10:25:24;97109.50;;;5.57;56.46
30682;BME280;17439;48.092;11.842;2023-02-11T10:27:52;97113.69;;;5.65;55.70
30682;BME280;17439;48.092;11.842;2023-02-11T10:30:30;97121.97;;;5.75;53.88
30682;BME280;17439;48.092;11.842;2023-02-11T10:35:49;97087.59;;;5.94;56.70
30682;BME280;17439;48.092;11.842;2023-02-11T10:38:15;97086.66;;;6.01;56.21
30682;BME280;17439;48.092;11.842;2023-02-11T10:40:42;97076.59;;;6.08;56.10
30682;BME280;17439;48.092;11.842;2023-02-11T10:43:14;97085.31;;;6.15;54.04
30682;BME280;17439;48.092;11.842;2023-02-11T10:45:48;97085.16;;;6.22;53.26
30682;BME280;17439;48.092;11.842;2023-02-11T10:48:37;97087.72;;;6.28;49.68
30682;BME280;17439;48.092;11.842;2023-02-11T10:51:15;97087.06;;;6.38;52.58
30682;BME280;17439;48.092;11.842;2023-02-11T10:53:43;97079.38;;;6.47;56.39
30682;BME280;17439;48.092;11.842;2023-02-11T10:56:12;97086.81;;;6.57;55.68
30682;BME280;17439;48.092;11.842;2023-02-11T10:59:38;97086.91;;;6.62;48.80
30682;BME280;17439;48.092;11.842;2023-02-11T11:01:47;97079.47;;;6.69;51.66
30682;BME280;17439;48.092;11.842;2023-02-11T11:04:42;97079.78;;;6.72;48.29
30682;BME280;17439;48.092;11.842;2023-02-11T11:07:30;97082.34;;;6.79;53.88
30682;BME280;17439;48.092;11.842;2023-02-11T11:10:07;97076.75;;;6.86;54.63
30682;BME280;17439;48.092;11.842;2023-02-11T11:12:50;97073.31;;;6.90;55.88
30682;BME280;17439;48.092;11.842;2023-02-11T11:15:20;97057.47;;;6.94;53.96
30682;BME280;17439;48.092;11.842;2023-02-11T11:17:48;97060.41;;;6.93;51.46
30682;BME280;17439;48.092;11.842;2023-02-11T11:20:25;97059.41;;;6.99;52.88
30682;BME280;17439;48.092;11.842;2023-02-11T11:23:35;97057.78;;;6.98;52.22
30682;BME280;17439;48.092;11.842;2023-02-11T11:25:45;97064.13;;;7.08;52.00
30682;BME280;17439;48.092;11.842;2023-02-11T11:28:25;97055.84;;;7.15;51.82
30682;BME280;17439;48.092;11.842;2023-02-11T11:30:54;97051.34;;;7.21;52.29
30682;BME280;17439;48.092;11.842;2023-02-11T11:33:25;97052.28;;;7.32;52.49
30682;BME280;17439;48.092;11.842;2023-02-11T11:35:57;97052.91;;;7.39;50.50
30682;BME280;17439;48.092;11.842;2023-02-11T11:38:27;97053.03;;;7.49;52.23
30682;BME280;17439;48.092;11.842;2023-02-11T11:41:18;97063.41;;;7.57;50.14
30682;BME280;17439;48.092;11.842;2023-02-11T11:46:47;97046.34;;;7.79;49.29
30682;BME280;17439;48.092;11.842;2023-02-11T11:49:24;97056.13;;;7.85;46.56
30682;BME280;17439;48.092;11.842;2023-02-11T11:52:10;97056.78;;;7.92;45.28
30682;BME280;17439;48.092;11.842;2023-02-11T11:54:37;97053.81;;;7.94;47.96
30682;BME280;17439;48.092;11.842;2023-02-11T11:57:12;97056.56;;;7.99;45.28
30682;BME280;17439;48.092;11.842;2023-02-11T11:59:40;97061.75;;;8.06;47.91
30682;BME280;17439;48.092;11.842;2023-02-11T12:07:28;97074.53;;;8.15;45.04
30682;BME280;17439;48.092;11.842;2023-02-11T12:12:50;97060.28;;;8.20;41.04
30682;BME280;17439;48.092;11.842;2023-02-11T12:15:24;97046.81;;;8.25;48.05
30682;BME280;17439;48.092;11.842;2023-02-11T12:18:16;97037.88;;;8.25;45.83
30682;BME280;17439;48.092;11.842;2023-02-11T12:26:17;97027.38;;;8.28;47.13
30682;BME280;17439;48.092;11.842;2023-02-11T12:31:28;97023.59;;;8.29;46.98
30682;BME280;17439;48.092;11.842;2023-02-11T12:37:18;97002.53;;;8.31;46.97
30682;BME280;17439;48.092;11.842;2023-02-11T12:39:56;97001.50;;;8.38;51.29
30682;BME280;17439;48.092;11.842;2023-02-11T12:42:59;97005.13;;;8.43;46.81
30682;BME280;17439;48.092;11.842;2023-02-11T12:56:39;96997.44;;;8.67;43.21
30682;BME280;17439;48.092;11.842;2023-02-11T12:59:28;96991.50;;;8.70;41.93
30682;BME280;17439;48.092;11.842;2023-02-11T13:01:58;96990.97;;;8.74;48.20
30682;BME280;17439;48.092;11.842;2023-02-11T13:04:37;96989.63;;;8.76;44.08
30682;BME280;17439;48.092;11.842;2023-02-11T13:07:13;96999.13;;;8.79;43.18
30682;BME280;17439;48.092;11.842;2023-02-11T13:09:45;96982.91;;;8.84;44.74
30682;BME280;17439;48.092;11.842;2023-02-11T13:12:16;96977.53;;;8.89;47.53
30682;BME280;17439;48.092;11.842;2023-02-11T13:14:43;96978.91;;;8.92;47.86
30682;BME280;17439;48.092;11.842;2023-02-11T13:17:21;96973.22;;;8.93;45.93
30682;BME280;17439;48.092;11.842;2023-02-11T13:19:55;96974.88;;;8.94;45.20
30682;BME280;17439;48.092;11.842;2023-02-11T13:22:58;96966.72;;;8.89;43.37
30682;BME280;17439;48.092;11.842;2023-02-11T13:25:49;96958.84;;;8.87;43.70
30682;BME280;17439;48.092;11.842;2023-02-11T13:28:31;96955.31;;;8.82;45.26
30682;BME280;17439;48.092;11.842;2023-02-11T13:31:00;96956.38;;;8.76;46.16
30682;BME280;17439;48.092;11.842;2023-02-11T13:33:38;96961.75;;;8.70;44.56
30682;BME280;17439;48.092;11.842;2023-02-11T13:38:31;96966.91;;;8.72;47.08
30682;BME280;17439;48.092;11.842;2023-02-11T13:41:22;96961.19;;;8.68;37.21
30682;BME280;17439;48.092;11.842;2023-02-11T13:44:02;96957.50;;;8.80;43.43
30682;BME280;17439;48.092;11.842;2023-02-11T13:46:48;96965.91;;;8.88;43.03
30682;BME280;17439;48.092;11.842;2023-02-11T13:49:25;96969.47;;;8.99;43.40
30682;BME280;17439;48.092;11.842;2023-02-11T13:51:53;96961.91;;;9.06;45.33
30682;BME280;17439;48.092;11.842;2023-02-11T13:54:38;96960.34;;;9.16;45.07
30682;BME280;17439;48.092;11.842;2023-02-11T13:57:22;96954.41;;;9.19;41.22
30682;BME280;17439;48.092;11.842;2023-02-11T13:59:59;96953.34;;;9.25;43.18
30682;BME280;17439;48.092;11.842;2023-02-11T14:02:32;96951.75;;;9.29;45.74
30682;BME280;17439;48.092;11.842;2023-02-11T14:07:31;96942.53;;;9.35;44.94
30682;BME280;17439;48.092;11.842;2023-02-11T14:09:58;96950.13;;;9.38;45.13
30682;BME280;17439;48.092;11.842;2023-02-11T14:12:31;96945.28;;;9.40;43.51
30682;BME280;17439;48.092;11.842;2023-02-11T14:15:19;96953.66;;;9.39;43.03
30682;BME280;17439;48.092;11.842;2023-02-11T14:17:45;96947.47;;;9.43;44.90
30682;BME280;17439;48.092;11.842;2023-02-11T14:20:40;96951.25;;;9.42;40.64
30682;BME280;17439;48.092;11.842;2023-02-11T14:23:20;96955.56;;;9.43;37.88
30682;BME280;17439;48.092;11.842;2023-02-11T14:25:58;96958.03;;;9.45;40.37
30682;BME280;17439;48.092;11.842;2023-02-11T14:28:29;96964.25;;;9.46;44.27
30682;BME280;17439;48.092;11.842;2023-02-11T14:31:07;96974.81;;;9.47;44.39
30682;BME280;17439;48.092;11.842;2023-02-11T14:36:51;96962.91;;;9.48;44.29
30682;BME280;17439;48.092;11.842;2023-02-11T14:41:56;96968.31;;;9.48;45.33
30682;BME280;17439;48.092;11.842;2023-02-11T14:44:26;96966.41;;;9.49;42.98